Terminal Aerodrome Forecast
Issued by NWS Melbourne, FL

Home | Current Version | Previous Version | Text Only | Print | Product List | Glossary On
Versions: 1 2 3 4 5 6 7 8 9 10 11 12 13 14 15 16 17 18 19 20
000
FTUS42 KMLB 272338
TAFVRB
TAF
KVRB 272338Z 2800/2824 35011KT 6SM BR OVC006
     FM280400 05010KT 3SM -RADZ BR OVC004
     FM281500 07014G22KT P6SM VCSH OVC012=

USA.gov is the U.S. government's official web portal to all federal, state and local government web resources and services.